Time;durP1;ratioP1;P1;durP2;ratioP2;P2;SDS_P1;SDS_P2;PMS_P1;PMS_P2;Temp;Humidity;BMP_temperature;BMP_pressure;BME280_temperature;BME280_humidity;BME280_pressure;Samples;Min_cycle;Max_cycle;Signal;HPM_P1;HPM_P2
2022/04/26 03:38:14;;;;;;;5.03;3.33;;;;;;;8.65;71.15;93119.31;5113086;28;20034;-38
2022/04/26 03:40:39;;;;;;;4.65;3.45;;;;;;;8.44;72.12;93126.94;5114295;28;20104;-38
2022/04/26 03:43:05;;;;;;;6.97;2.88;;;;;;;8.52;72.01;93129.69;5113929;28;20508;-38
2022/04/26 03:45:30;;;;;;;4.88;2.63;;;;;;;8.48;71.59;93134.81;5114219;28;20034;-38
2022/04/26 03:47:56;;;;;;;4.65;2.67;;;;;;;8.43;72.05;93135.69;5114126;28;20404;-38
2022/04/26 03:50:21;;;;;;;7.85;2.85;;;;;;;8.55;71.55;93139.63;5113844;28;20425;-38
2022/04/26 03:52:47;;;;;;;32.25;3.47;;;;;;;8.53;71.86;93142.94;5114135;28;20032;-38
2022/04/26 03:55:12;;;;;;;9.02;3.00;;;;;;;8.43;72.40;93139.19;5113999;28;20450;-38
2022/04/26 03:57:38;;;;;;;7.45;3.00;;;;;;;8.56;71.49;93141.09;5113663;28;20028;-38
2022/04/26 04:00:05;;;;;;;5.68;3.45;;;;;;;8.57;72.18;93146.06;5095142;28;20028;-38
2022/04/26 04:02:30;;;;;;;3.58;1.85;;;;;;;8.70;71.45;93136.94;5093215;28;20489;-38
2022/04/26 04:04:56;;;;;;;4.90;2.20;;;;;;;8.74;69.70;93134.56;5093426;28;20019;-38
2022/04/26 04:07:21;;;;;;;7.82;3.05;;;;;;;8.69;70.08;93144.47;5093388;28;20048;-38
2022/04/26 04:09:46;;;;;;;5.57;2.55;;;;;;;8.75;70.81;93136.06;5093352;28;20098;-38
2022/04/26 04:12:12;;;;;;;4.03;2.35;;;;;;;8.93;70.55;93140.50;5093311;28;20093;-38
2022/04/26 04:14:37;;;;;;;6.95;2.25;;;;;;;8.94;70.23;93144.75;5109842;28;20024;-38
2022/04/26 04:17:03;;;;;;;4.63;2.58;;;;;;;8.76;71.03;93124.50;5113692;28;20027;-38
2022/04/26 04:19:29;;;;;;;4.90;2.65;;;;;;;8.97;71.21;93144.38;5113246;28;20019;-38
2022/04/26 04:21:55;;;;;;;9.40;2.75;;;;;;;9.25;70.27;93140.06;5113231;28;20551;-38
2022/04/26 04:24:21;;;;;;;6.10;2.83;;;;;;;9.28;70.63;93144.47;5113149;28;20016;-38
2022/04/26 04:26:47;;;;;;;7.13;3.33;;;;;;;9.31;71.40;93151.66;5113394;28;20027;-38
2022/04/26 04:29:13;;;;;;;10.05;3.47;;;;;;;9.37;70.76;93154.97;5113398;28;20034;-38
2022/04/26 04:31:38;;;;;;;11.45;2.95;;;;;;;9.76;69.56;93149.69;5111723;28;20035;-38
2022/04/26 04:34:04;;;;;;;8.45;2.85;;;;;;;10.03;69.01;93150.06;5096998;28;20513;-38
2022/04/26 04:36:30;;;;;;;6.35;2.72;;;;;;;10.16;68.57;93158.16;5092500;28;20020;-38
2022/04/26 04:38:56;;;;;;;10.52;3.30;;;;;;;10.68;67.97;93156.59;5092769;28;20023;-38
2022/04/26 04:41:22;;;;;;;8.63;3.15;;;;;;;10.86;66.03;93155.44;5092499;28;20024;-38
2022/04/26 04:43:47;;;;;;;7.38;3.78;;;;;;;11.05;66.29;93160.53;5092347;28;20055;-38
2022/04/26 04:46:12;;;;;;;7.55;3.55;;;;;;;11.23;66.23;93164.88;5092375;28;20028;-38
2022/04/26 04:48:38;;;;;;;5.88;3.60;;;;;;;11.46;66.70;93165.47;5092541;28;20020;-38
2022/04/26 04:51:03;;;;;;;8.98;3.58;;;;;;;11.40;65.17;93171.25;5092549;28;20020;-38
2022/04/26 04:53:29;;;;;;;13.82;3.75;;;;;;;11.57;65.66;93173.34;5092531;28;20027;-38
2022/04/26 04:55:54;;;;;;;5.78;3.28;;;;;;;11.75;65.49;93176.97;5092072;28;20012;-38
2022/04/26 04:58:20;;;;;;;6.43;3.40;;;;;;;11.85;64.41;93184.09;5094722;28;20062;-38
2022/04/26 05:00:45;;;;;;;3.90;2.22;;;;;;;11.85;63.22;93175.03;5112729;28;20020;-39
2022/04/26 05:03:11;;;;;;;5.47;2.47;;;;;;;11.80;63.57;93184.31;5112376;28;20466;-38
2022/04/26 05:05:36;;;;;;;4.93;3.50;;;;;;;12.08;62.84;93178.41;5112341;28;20027;-38
2022/04/26 05:08:02;;;;;;;5.90;3.20;;;;;;;12.26;62.84;93170.88;5112263;28;20019;-38
2022/04/26 05:10:29;;;;;;;7.88;4.93;;;;;;;12.51;62.43;93179.88;5112213;28;20019;-38
2022/04/26 05:12:55;;;;;;;11.07;3.95;;;;;;;12.70;63.24;93178.03;5112091;28;20023;-38
2022/04/26 05:15:20;;;;;;;108.03;45.88;;;;;;;12.69;63.38;93178.59;5111861;28;20582;-38
2022/04/26 05:17:46;;;;;;;168.68;80.45;;;;;;;12.83;63.35;93188.06;5112457;28;20019;-38
2022/04/26 05:20:11;;;;;;;91.90;42.97;;;;;;;13.02;61.85;93182.66;5112016;28;20030;-38
2022/04/26 05:25:21;;;;;;;90.05;39.35;;;;;;;13.33;62.48;93180.31;5112232;28;20066;-38
2022/04/26 05:27:46;;;;;;;41.30;21.70;;;;;;;13.57;61.61;93187.78;5112181;28;20020;-38
2022/04/26 05:30:12;;;;;;;36.38;19.85;;;;;;;13.77;60.91;93192.13;5096952;28;20028;-38
2022/04/26 05:32:38;;;;;;;53.05;20.10;;;;;;;13.90;59.21;93189.00;5091729;28;20028;-38
2022/04/26 05:35:05;;;;;;;41.47;20.75;;;;;;;14.01;59.50;93168.28;5091389;28;20431;-38
2022/04/26 05:37:33;;;;;;;48.95;22.15;;;;;;;14.52;61.02;93162.50;5091600;28;20085;-38
2022/04/26 05:40:03;;;;;;;31.13;10.80;;;;;;;15.04;59.42;93187.88;5091603;28;20043;-38
2022/04/26 05:42:29;;;;;;;52.05;13.30;;;;;;;15.18;57.17;93181.28;5090824;28;20028;-38
2022/04/26 05:44:56;;;;;;;37.28;11.20;;;;;;;15.33;54.77;93160.06;5091228;28;20494;-38
2022/04/26 05:47:21;;;;;;;20.10;6.80;;;;;;;15.59;53.36;93187.72;5091197;28;20028;-38
2022/04/26 05:49:47;;;;;;;10.60;2.95;;;;;;;15.81;50.43;93191.34;5091402;28;20077;-37
2022/04/26 05:52:12;;;;;;;3.38;1.92;;;;;;;16.04;49.10;93188.81;5091415;28;20070;-38
2022/04/26 05:54:38;;;;;;;4.18;1.67;;;;;;;16.15;49.44;93184.69;5091211;28;20033;-38
2022/04/26 05:57:04;;;;;;;3.70;1.70;;;;;;;16.02;50.36;93183.13;5091340;28;20425;-38
2022/04/26 05:59:31;;;;;;;4.00;1.20;;;;;;;15.83;49.99;93180.38;5104486;28;20023;-38
2022/04/26 06:01:56;;;;;;;4.90;1.50;;;;;;;15.75;49.52;93179.78;5111290;28;20047;-38
2022/04/26 06:04:23;;;;;;;8.85;1.20;;;;;;;15.62;51.35;93185.81;5111554;28;20011;-38
2022/04/26 06:06:48;;;;;;;6.53;1.80;;;;;;;15.68;50.58;93181.41;5111152;28;20488;-38
2022/04/26 06:09:14;;;;;;;4.07;1.58;;;;;;;16.13;50.44;93176.19;5111182;28;20064;-38
2022/04/26 06:11:39;;;;;;;2.53;1.08;;;;;;;17.04;46.89;93183.81;5111480;28;20053;-38
2022/04/26 06:14:05;;;;;;;2.15;1.10;;;;;;;17.39;46.31;93170.00;5110956;28;20019;-38
2022/04/26 06:16:30;;;;;;;2.50;1.08;;;;;;;17.47;46.84;93173.34;5110978;27;20440;-38
2022/04/26 06:18:56;;;;;;;1.15;0.95;;;;;;;17.21;46.59;93185.59;5110986;28;20019;-38
2022/04/26 06:21:21;;;;;;;1.00;0.70;;;;;;;17.61;46.62;93176.31;5111303;28;20023;-38
2022/04/26 06:23:47;;;;;;;2.58;1.27;;;;;;;18.06;44.64;93166.63;5111014;28;20043;-38
2022/04/26 06:26:13;;;;;;;6.03;1.20;;;;;;;18.94;44.11;93168.47;5096804;28;20028;-38
2022/04/26 06:28:38;;;;;;;1.27;0.90;;;;;;;19.58;42.94;93160.28;5090566;28;20024;-38
2022/04/26 06:31:04;;;;;;;2.33;0.80;;;;;;;19.50;41.55;93165.41;5090762;28;20032;-36
2022/04/26 06:33:29;;;;;;;1.60;1.10;;;;;;;19.49;41.34;93173.09;5090734;28;20051;-36
2022/04/26 06:35:55;;;;;;;3.30;1.10;;;;;;;19.45;41.75;93175.66;5090702;28;20406;-38
2022/04/26 06:38:23;;;;;;;1.20;1.00;;;;;;;19.77;39.81;93176.03;5090651;28;20477;-36
2022/04/26 06:40:49;;;;;;;4.75;1.10;;;;;;;19.66;39.68;93178.25;5090322;28;20016;-38
2022/04/26 06:43:15;;;;;;;10.00;1.50;;;;;;;19.55;40.78;93175.50;5090297;28;20031;-38
2022/04/26 06:45:41;;;;;;;2.95;1.13;;;;;;;19.24;41.80;93180.69;5090409;28;20103;-38
2022/04/26 06:48:08;;;;;;;3.75;1.35;;;;;;;19.11;40.18;93172.94;5090574;28;20054;-38
2022/04/26 06:50:33;;;;;;;5.07;1.30;;;;;;;19.16;40.10;93169.03;5090269;28;20081;-38
2022/04/26 06:52:59;;;;;;;2.08;1.15;;;;;;;19.40;41.13;93176.06;5090225;28;20028;-38
2022/04/26 06:55:24;;;;;;;2.70;1.10;;;;;;;19.77;40.56;93173.97;5091775;28;20039;-36
2022/04/26 06:57:50;;;;;;;6.80;1.17;;;;;;;20.33;39.51;93179.16;5094670;28;20028;-37
2022/04/26 07:00:16;;;;;;;11.85;1.98;;;;;;;21.19;37.83;93176.63;5114535;28;20023;-37
2022/04/26 07:02:42;;;;;;;12.27;1.50;;;;;;;21.69;36.63;93179.13;5114755;28;20049;-37
2022/04/26 07:05:08;;;;;;;5.18;1.52;;;;;;;21.98;36.09;93175.63;5115044;28;20409;-37
2022/04/26 07:07:33;;;;;;;4.28;1.35;;;;;;;21.96;35.92;93176.25;5113487;28;20024;-37
2022/04/26 07:09:58;;;;;;;12.93;1.83;;;;;;;22.07;36.22;93178.19;5114875;28;20038;-36
2022/04/26 07:12:24;;;;;;;2.65;0.90;;;;;;;22.46;33.83;93172.97;5114887;28;20031;-37
2022/04/26 07:14:49;;;;;;;39.25;4.53;;;;;;;22.74;34.23;93176.38;5114134;28;20474;-37
2022/04/26 07:17:17;;;;;;;4.07;0.68;;;;;;;23.20;33.95;93166.41;5114518;28;20020;-37
2022/04/26 07:19:42;;;;;;;5.18;0.95;;;;;;;23.70;33.86;93167.84;5114372;28;20484;-37
2022/04/26 07:22:09;;;;;;;2.05;0.80;;;;;;;24.14;32.79;93177.41;5104239;28;20028;-37
2022/04/26 07:24:35;;;;;;;2.67;0.90;;;;;;;24.19;29.99;93168.44;5094228;28;20434;-36
2022/04/26 07:27:01;;;;;;;4.18;0.85;;;;;;;24.68;30.87;93173.84;5093932;28;20032;-37
2022/04/26 07:29:26;;;;;;;2.83;0.70;;;;;;;26.14;29.38;93166.28;5094165;28;20023;-37
2022/04/26 07:31:52;;;;;;;2.05;0.60;;;;;;;27.49;28.16;93173.13;5094114;28;20028;-37
2022/04/26 07:34:20;;;;;;;2.50;1.10;;;;;;;28.73;26.35;93169.84;5093723;28;20477;-37
2022/04/26 07:36:53;;;;;;;3.40;0.93;;;;;;;29.81;24.51;93171.38;5093801;28;20081;-37
2022/04/26 07:39:19;;;;;;;3.20;1.10;;;;;;;30.16;23.25;93169.13;5094015;28;20413;-38
2022/04/26 07:41:46;;;;;;;6.32;1.17;;;;;;;29.95;22.95;93168.06;5093975;28;20016;-37
2022/04/26 07:44:12;;;;;;;3.90;1.05;;;;;;;29.37;24.02;93166.97;5093577;28;20024;-37
2022/04/26 07:46:38;;;;;;;3.45;0.90;;;;;;;29.26;24.07;93176.69;5093500;28;20499;-37
2022/04/26 07:49:05;;;;;;;4.03;1.02;;;;;;;29.83;24.25;93171.41;5092259;28;20461;-37
2022/04/26 07:51:31;;;;;;;6.65;1.20;;;;;;;30.12;21.89;93171.91;5093744;28;20028;-37
2022/04/26 07:53:57;;;;;;;3.60;1.20;;;;;;;31.24;23.89;93172.91;5092433;28;20023;-38
2022/04/26 07:56:23;;;;;;;4.07;1.17;;;;;;;31.99;21.13;93177.34;5093371;28;20584;-38
2022/04/26 07:58:48;;;;;;;3.83;1.17;;;;;;;32.65;20.60;93171.53;5101423;28;20095;-37
2022/04/26 08:01:14;;;;;;;4.05;1.35;;;;;;;32.65;20.97;93168.66;5113629;28;20023;-37
2022/04/26 08:03:39;;;;;;;3.05;1.50;;;;;;;33.40;20.05;93175.53;5113904;28;20023;-38
2022/04/26 08:06:05;;;;;;;8.80;1.58;;;;;;;33.18;19.98;93172.59;5113578;28;20027;-37
2022/04/26 08:08:30;;;;;;;34.88;2.63;;;;;;;31.89;20.64;93177.97;5113424;28;20504;-37
2022/04/26 08:10:56;;;;;;;5.78;1.27;;;;;;;30.15;20.90;93179.09;5113448;28;20023;-37
2022/04/26 08:13:21;;;;;;;6.20;1.30;;;;;;;28.87;24.28;93178.69;5112991;28;20020;-37
2022/04/26 08:15:47;;;;;;;6.97;1.58;;;;;;;29.62;25.75;93174.53;5113153;28;20035;-37
2022/04/26 08:18:13;;;;;;;4.03;1.13;;;;;;;30.74;23.02;93175.75;5104849;28;20036;-37
2022/04/26 08:20:38;;;;;;;3.05;1.20;;;;;;;30.79;22.55;93168.72;5092860;28;20111;-38
2022/04/26 08:23:06;;;;;;;7.63;1.25;;;;;;;31.45;21.54;93168.91;5093187;28;20024;-37
2022/04/26 08:28:17;;;;;;;4.53;0.88;;;;;;;33.66;18.42;93163.53;5093057;28;20031;-38
2022/04/26 08:30:42;;;;;;;8.32;1.40;;;;;;;34.20;19.02;93167.22;5093062;28;20507;-37
2022/04/26 08:33:08;;;;;;;3.20;0.90;;;;;;;34.95;18.32;93159.38;5092948;28;20409;-37
2022/04/26 08:35:33;;;;;;;1.85;0.85;;;;;;;34.78;19.44;93160.81;5092562;28;20436;-38
2022/04/26 08:37:59;;;;;;;4.90;1.15;;;;;;;35.38;18.28;93167.88;5092833;28;20027;-38
2022/04/26 08:40:26;;;;;;;5.80;1.42;;;;;;;34.44;18.44;93171.56;5092839;28;20031;-38
2022/04/26 08:42:52;;;;;;;8.35;1.50;;;;;;;33.32;19.73;93161.94;5091319;28;20024;-37
2022/04/26 08:45:19;;;;;;;3.67;1.05;;;;;;;31.06;20.71;93167.69;5092733;28;20012;-37
2022/04/26 08:53:18;;;;;;;4.25;1.17;;;;;;;31.99;22.47;93168.78;5092350;28;20047;-37
2022/04/26 08:55:46;;;;;;;5.18;1.38;;;;;;;31.89;21.40;93166.53;5092426;28;20382;-37
2022/04/26 08:58:13;;;;;;;4.60;1.27;;;;;;;30.49;22.45;93173.97;5095039;28;20036;-37
2022/04/26 09:00:40;;;;;;;4.35;1.50;;;;;;;28.96;24.15;93168.94;5112836;28;20039;-37
2022/04/26 09:03:11;;;;;;;8.38;3.38;;;;;;;27.60;25.87;93169.19;5112472;28;20492;-37
2022/04/26 09:05:37;;;;;;;7.78;1.90;;;;;;;26.82;26.84;93159.91;5112443;28;20028;-38
2022/04/26 09:08:21;;;;;;;10.60;1.80;;;;;;;26.25;28.64;93173.69;5112343;28;20026;-37
2022/04/26 09:10:48;;;;;;;6.60;1.63;;;;;;;25.28;29.70;93167.59;5112329;28;20073;-37
2022/04/26 09:13:15;;;;;;;5.57;1.13;;;;;;;24.65;29.76;93166.66;5111852;28;20015;-37
2022/04/26 09:15:54;;;;;;;4.38;1.45;;;;;;;24.19;30.71;93164.91;5093047;28;20040;-37
2022/04/26 09:18:27;;;;;;;5.50;1.83;;;;;;;24.03;31.49;93176.97;5091406;28;20032;-37
2022/04/26 09:21:05;;;;;;;5.97;1.70;;;;;;;24.63;32.73;93175.78;5090588;28;20607;-37
2022/04/26 09:23:32;;;;;;;3.77;1.40;;;;;;;25.15;30.82;93170.63;5092091;28;20035;-37
2022/04/26 09:26:08;;;;;;;2.33;1.17;;;;;;;25.24;30.44;93166.72;5091921;28;20807;-37
2022/04/26 09:28:37;;;;;;;8.30;1.92;;;;;;;25.38;29.25;93167.94;5091911;28;20077;-37
2022/04/26 09:31:19;;;;;;;5.50;1.23;;;;;;;26.27;27.76;93168.09;5091818;28;20020;-37
2022/04/26 09:33:49;;;;;;;4.32;1.20;;;;;;;27.00;28.41;93162.53;5091748;28;20055;-38
2022/04/26 09:36:16;;;;;;;3.38;1.05;;;;;;;26.04;28.04;93165.94;5091771;28;20016;-37
2022/04/26 09:38:58;;;;;;;62.85;6.07;;;;;;;25.27;29.76;93171.81;5091376;28;20023;-37
2022/04/26 09:41:26;;;;;;;6.20;1.02;;;;;;;25.22;29.81;93173.03;5091356;28;20024;-37
2022/04/26 09:44:03;;;;;;;4.00;0.88;;;;;;;24.95;30.50;93159.34;5091193;28;20032;-37
2022/04/26 09:46:44;;;;;;;5.25;1.13;;;;;;;24.64;31.49;93162.41;5091525;28;20020;-37
2022/04/26 09:49:26;;;;;;;14.68;2.42;;;;;;;24.10;31.59;93152.59;5091032;28;20085;-39
2022/04/26 09:51:58;;;;;;;8.95;2.83;;;;;;;23.77;32.88;93147.72;5091500;28;20016;-39
2022/04/26 09:54:24;;;;;;;6.00;1.77;;;;;;;23.67;33.01;93152.94;5091017;28;20031;-37
2022/04/26 09:56:49;;;;;;;5.55;1.92;;;;;;;23.54;32.76;93145.34;5090981;28;20020;-37
2022/04/26 09:59:38;;;;;;;2.53;1.63;;;;;;;23.19;33.51;93146.00;5102628;28;20023;-36
2022/04/26 10:02:07;;;;;;;7.28;1.50;;;;;;;22.68;34.85;93144.41;5100736;28;20039;-38
2022/04/26 10:04:34;;;;;;;3.42;1.58;;;;;;;22.44;34.93;93149.66;5111259;28;20080;-38
2022/04/26 10:07:03;;;;;;;7.43;1.20;;;;;;;22.40;33.94;93144.59;5110333;28;20470;-39
2022/04/26 10:09:29;;;;;;;3.70;1.45;;;;;;;22.08;35.50;93137.47;5111116;28;20520;-39
2022/04/26 10:11:59;;;;;;;3.78;1.05;;;;;;;21.71;35.17;93156.75;5109931;28;20032;-39
2022/04/26 10:14:27;;;;;;;3.47;1.45;;;;;;;23.06;34.96;93146.09;5107969;28;20032;-37
2022/04/26 10:16:53;;;;;;;3.17;0.85;;;;;;;25.00;29.73;93144.00;5110995;28;20100;-37
2022/04/26 10:19:19;;;;;;;3.70;0.80;;;;;;;25.33;28.12;93138.09;5110108;28;20016;-37
2022/04/26 10:21:49;;;;;;;4.90;1.17;;;;;;;24.94;28.80;93126.84;5111063;28;20016;-37
2022/04/26 10:24:18;;;;;;;12.65;1.45;;;;;;;25.64;32.20;93136.34;5111039;28;20051;-38
2022/04/26 10:26:43;;;;;;;3.38;1.02;;;;;;;26.73;27.24;93127.06;5111215;28;20023;-37
2022/04/26 10:29:09;;;;;;;3.70;1.17;;;;;;;27.42;25.90;93131.81;5110915;28;20037;-37
2022/04/26 10:31:46;;;;;;;3.65;0.95;;;;;;;28.36;25.25;93131.38;5111161;28;20024;-37
2022/04/26 10:34:24;;;;;;;1.63;0.70;;;;;;;28.03;24.29;93128.44;5111054;28;20031;-38
2022/04/26 10:36:55;;;;;;;3.30;1.00;;;;;;;28.23;24.07;93123.97;5111149;28;20023;-37
2022/04/26 10:39:24;;;;;;;1.85;0.90;;;;;;;28.19;24.35;93121.03;5111022;28;20111;-38
2022/04/26 10:41:51;;;;;;;5.07;0.80;;;;;;;27.79;24.63;93120.75;5110740;28;20110;-38
2022/04/26 10:44:22;;;;;;;1.80;0.77;;;;;;;26.68;26.34;93130.44;5110734;28;20024;-38
2022/04/26 10:46:58;;;;;;;4.32;1.08;;;;;;;25.64;26.79;93139.16;5110737;28;20038;-38
2022/04/26 10:49:33;;;;;;;2.13;0.80;;;;;;;25.14;28.38;93147.34;5110968;28;20416;-38
2022/04/26 10:52:13;;;;;;;3.28;1.15;;;;;;;25.09;27.79;93145.72;5110704;28;20118;-37
2022/04/26 10:55:03;;;;;;;2.72;1.02;;;;;;;24.18;28.56;93140.88;5110558;28;20500;-37
2022/04/26 10:57:29;;;;;;;2.45;0.88;;;;;;;23.40;30.72;93133.50;5110875;28;20050;-37
2022/04/26 11:00:02;;;;;;;4.50;0.80;;;;;;;23.30;31.91;93128.13;5093451;28;20024;-37
2022/04/26 11:02:31;;;;;;;4.07;1.30;;;;;;;23.84;31.19;93120.50;5090212;28;20024;-37
2022/04/26 11:05:04;;;;;;;4.53;1.15;;;;;;;24.44;30.11;93120.03;5090213;28;20031;-37
2022/04/26 11:07:31;;;;;;;6.18;1.08;;;;;;;23.99;30.06;93116.88;5103025;28;20053;-39
2022/04/26 11:09:57;;;;;;;1.40;0.82;;;;;;;22.78;31.59;93114.66;5110492;28;20497;-39
2022/04/26 11:12:28;;;;;;;1.98;0.90;;;;;;;22.27;32.18;93120.06;5110737;28;20030;-39
2022/04/26 11:14:55;;;;;;;4.20;1.20;;;;;;;21.70;33.65;93124.41;5107244;28;20397;-39
2022/04/26 11:17:24;;;;;;;2.97;1.00;;;;;;;21.44;34.29;93126.66;5110372;28;20030;-39
2022/04/26 11:20:00;;;;;;;2.05;1.00;;;;;;;21.18;34.85;93133.06;5110342;28;20030;-39
2022/04/26 11:22:27;;;;;;;1.67;0.90;;;;;;;20.73;34.91;93130.78;5110344;28;20031;-39
2022/04/26 11:28:09;;;;;;;2.55;1.10;;;;;;;20.37;35.95;93132.44;5110565;28;20030;-39
2022/04/26 11:30:43;;;;;;;5.07;1.10;;;;;;;20.26;36.48;93129.72;5109272;28;20475;-40
2022/04/26 11:33:22;;;;;;;3.45;1.55;;;;;;;20.07;36.50;93142.00;5110546;28;20043;-39
2022/04/26 11:36:06;;;;;;;;;;;;;;;19.68;37.10;93133.53;5110778;28;20409;-39
2022/04/26 11:38:32;;;;;;;2.80;1.50;;;;;;;19.23;37.72;93126.06;5110476;28;19985;-39
2022/04/26 11:40:58;;;;;;;7.32;1.30;;;;;;;19.15;38.15;93123.53;5111287;28;20064;-39
2022/04/26 11:43:26;;;;;;;2.28;1.05;;;;;;;19.01;38.59;93099.59;5114305;28;20023;-39
2022/04/26 11:45:55;;;;;;;1.60;1.10;;;;;;;19.35;40.20;93124.69;5113927;28;20122;-39
2022/04/26 11:48:23;;;;;;;2.60;0.90;;;;;;;19.30;38.76;93122.25;5114225;28;20028;-39
2022/04/26 11:50:50;;;;;;;4.30;0.95;;;;;;;19.22;38.40;93124.59;5113861;28;20028;-39
2022/04/26 11:53:21;;;;;;;3.40;0.90;;;;;;;18.95;39.64;93121.66;5113860;28;20027;-39
2022/04/26 11:55:52;;;;;;;2.85;0.80;;;;;;;19.02;39.25;93131.81;5113819;28;20019;-39
2022/04/26 11:58:27;;;;;;;7.88;0.93;;;;;;;19.05;39.09;93130.59;5110491;28;20012;-39
2022/04/26 12:01:15;;;;;;;2.53;1.20;;;;;;;19.16;38.75;93147.38;5093394;28;20024;-39
2022/04/26 12:03:52;;;;;;;3.78;0.82;;;;;;;19.06;38.83;93157.97;5105576;28;20031;-39
2022/04/26 12:06:25;;;;;;;4.53;1.40;;;;;;;18.61;44.58;93153.91;5112447;28;20517;-39
2022/04/26 12:08:55;;;;;;;4.72;1.10;;;;;;;18.28;47.04;93173.56;5113829;28;20432;-39
2022/04/26 12:11:27;;;;;;;6.15;1.52;;;;;;;17.89;50.05;93187.22;5113778;28;20420;-38
2022/04/26 12:14:07;;;;;;;3.80;1.13;;;;;;;17.29;51.74;93183.31;5110277;28;20023;-39
2022/04/26 12:16:36;;;;;;;4.72;1.65;;;;;;;16.98;55.50;93199.41;5113190;27;20527;-39
2022/04/26 12:19:03;;;;;;;3.67;1.70;;;;;;;16.65;58.27;93213.97;5113285;28;20028;-38
2022/04/26 12:21:46;;;;;;;10.65;1.65;;;;;;;16.21;60.20;93210.91;5113555;28;20105;-39
2022/04/26 12:24:23;;;;;;;4.72;1.83;;;;;;;15.93;60.02;93206.13;5113522;28;20123;-39
2022/04/26 12:26:53;;;;;;;7.03;1.80;;;;;;;15.83;59.53;93208.94;5113547;28;20031;-39
2022/04/26 12:29:19;;;;;;;3.40;1.83;;;;;;;15.54;62.78;93211.03;5113450;28;20507;-38
2022/04/26 12:31:47;;;;;;;4.50;1.80;;;;;;;15.24;64.15;93200.47;5113352;28;20133;-39
2022/04/26 12:34:31;;;;;;;4.88;1.73;;;;;;;14.89;66.83;93202.06;5112962;28;20031;-38
2022/04/26 12:37:06;;;;;;;4.47;1.88;;;;;;;14.90;67.83;93218.13;5113030;28;20042;-39
2022/04/26 12:39:38;;;;;;;5.45;1.85;;;;;;;14.75;67.67;93223.97;5112864;28;20051;-39
2022/04/26 12:42:04;;;;;;;5.68;1.77;;;;;;;14.60;66.94;93215.13;5113188;28;20449;-38
2022/04/26 12:44:29;;;;;;;4.93;1.75;;;;;;;14.70;69.37;93221.47;5113158;28;20618;-38
2022/04/26 13:03:03;;;;;;;3.88;2.20;;;;;;;15.39;72.11;93235.59;5120610;27;20598;-38
2022/04/26 13:05:35;;;;;;;3.42;2.40;;;;;;;15.42;72.24;93234.44;5087734;28;20086;-38
2022/04/26 13:08:00;;;;;;;4.85;1.95;;;;;;;15.52;70.53;93237.97;5087878;28;20051;-38
2022/04/26 13:10:26;;;;;;;4.22;1.55;;;;;;;15.43;68.01;93239.44;5087776;28;20758;-37
2022/04/26 13:12:51;;;;;;;9.85;2.25;;;;;;;15.41;70.42;93230.94;5087690;28;20492;-38
2022/04/26 13:15:19;;;;;;;3.53;2.20;;;;;;;15.11;69.93;93225.94;5067518;28;20504;-38
2022/04/26 13:17:44;;;;;;;8.30;4.93;;;;;;;15.13;71.87;93232.38;5067193;28;20556;-37
2022/04/26 13:20:10;;;;;;;12.02;3.53;;;;;;;15.06;72.11;93236.03;5067360;28;20104;-37
2022/04/26 13:22:37;;;;;;;7.53;2.72;;;;;;;15.03;72.63;93214.94;5067092;28;20485;-37
2022/04/26 13:25:03;;;;;;;5.60;3.28;;;;;;;15.26;72.31;93213.78;5070445;28;20021;-37
2022/04/26 13:27:30;;;;;;;4.70;3.10;;;;;;;15.43;70.32;93206.06;5087092;28;20582;-38
2022/04/26 13:29:55;;;;;;;5.88;3.35;;;;;;;15.64;72.20;93200.63;5087148;28;20059;-38
2022/04/26 13:32:21;;;;;;;9.73;3.47;;;;;;;15.78;69.53;93184.19;5087017;28;20052;-38
2022/04/26 13:34:46;;;;;;;5.72;2.10;;;;;;;15.84;67.64;93154.72;5087386;28;20024;-39
2022/04/26 13:37:12;;;;;;;7.32;1.95;;;;;;;15.94;67.07;93130.38;5086948;28;20085;-38
2022/04/26 13:39:43;;;;;;;5.95;1.70;;;;;;;15.98;65.66;93126.41;5086952;28;20031;-38
2022/04/26 13:42:10;;;;;;;6.25;2.15;;;;;;;16.45;65.51;93131.03;5087284;28;20493;-38
2022/04/26 13:44:35;;;;;;;8.88;1.85;;;;;;;17.05;65.24;93121.09;5086867;28;20036;-38
2022/04/26 13:47:03;;;;;;;8.85;4.80;;;;;;;17.82;64.54;93129.50;5087062;28;20110;-38
2022/04/26 13:49:29;;;;;;;3.95;1.75;;;;;;;18.47;59.39;93141.88;5086782;28;20024;-38
2022/04/26 13:51:54;;;;;;;3.22;2.10;;;;;;;18.82;57.15;93134.19;5085390;28;20027;-38
2022/04/26 13:54:20;;;;;;;2.30;1.40;;;;;;;18.98;55.44;93128.78;5085875;28;20028;-38
2022/04/26 13:56:49;;;;;;;4.63;1.63;;;;;;;19.15;55.95;93125.59;5086357;28;20043;-39
2022/04/26 13:59:15;;;;;;;2.75;1.30;;;;;;;19.17;55.93;93123.63;5086295;28;20020;-38
2022/04/26 14:01:40;;;;;;;2.97;1.17;;;;;;;19.11;48.88;93119.75;5086325;28;20037;-38
2022/04/26 14:04:06;;;;;;;2.70;1.08;;;;;;;18.80;50.40;93128.47;5072369;28;20032;-38
2022/04/26 14:06:31;;;;;;;1.35;1.00;;;;;;;18.58;49.22;93139.06;5073231;28;20028;-38
2022/04/26 14:08:57;;;;;;;1.10;1.00;;;;;;;18.34;48.49;93139.66;5072918;28;20390;-38
2022/04/26 14:11:22;;;;;;;6.28;1.38;;;;;;;18.10;51.20;93141.72;5073030;28;20028;-38
2022/04/26 14:22:13;;;;;;;6.85;2.25;;;;;;;17.97;55.59;93136.72;5072633;28;20039;-38
2022/04/26 14:24:39;;;;;;;3.25;1.58;;;;;;;18.07;50.64;93131.75;5072986;28;20481;-38
2022/04/26 14:27:05;;;;;;;3.08;1.52;;;;;;;18.19;50.38;93138.81;5072581;28;20394;-38
2022/04/26 14:29:30;;;;;;;3.17;1.63;;;;;;;18.31;49.76;93140.88;5072495;28;20012;-38
2022/04/26 14:31:56;;;;;;;3.22;1.60;;;;;;;18.42;50.57;93142.94;5072487;28;20026;-38
2022/04/26 14:34:22;;;;;;;5.07;1.60;;;;;;;18.42;45.74;93143.69;5072703;28;20040;-38
2022/04/26 14:36:48;;;;;;;5.38;2.70;;;;;;;18.53;49.88;93142.97;5072523;28;20551;-38
2022/04/26 14:39:15;;;;;;;8.00;4.18;;;;;;;18.80;54.70;93157.16;5072311;28;20032;-38
2022/04/26 14:41:41;;;;;;;4.00;2.15;;;;;;;18.79;53.12;93141.00;5072709;28;20616;-38
2022/04/26 14:44:07;;;;;;;1.30;1.20;;;;;;;18.71;52.08;93148.94;5072655;28;20054;-38
2022/04/26 14:46:33;;;;;;;2.17;1.60;;;;;;;18.72;52.63;93153.91;5072514;28;20020;-38
2022/04/26 14:48:59;;;;;;;2.65;2.10;;;;;;;18.78;53.92;93159.13;5072523;28;20024;-38
2022/04/26 14:51:24;;;;;;;1.88;1.38;;;;;;;18.42;53.69;93156.91;5072349;28;20558;-38
2022/04/26 14:53:50;;;;;;;3.53;1.60;;;;;;;17.88;53.50;93162.69;5072227;28;20043;-38
2022/04/26 14:56:16;;;;;;;3.42;2.15;;;;;;;17.61;55.62;93159.56;5072324;28;20416;-39
2022/04/26 14:58:41;;;;;;;4.40;1.98;;;;;;;17.42;56.93;93146.50;5071945;28;20062;-38
2022/04/26 15:01:07;;;;;;;3.35;2.30;;;;;;;17.27;57.90;93149.72;5071751;28;20527;-38
2022/04/26 15:03:32;;;;;;;3.70;1.55;;;;;;;17.03;58.63;93136.97;5071863;28;20036;-38
2022/04/26 15:05:59;;;;;;;3.60;2.63;;;;;;;16.86;60.15;93140.03;5072174;28;20020;-38
2022/04/26 15:11:08;;;;;;;2.65;1.30;;;;;;;16.92;60.57;93140.44;5071959;28;20478;-38
2022/04/26 15:19:02;;;;;;;3.83;1.70;;;;;;;16.42;61.86;93137.78;5071912;28;20484;-39
2022/04/26 15:21:27;;;;;;;2.53;1.67;;;;;;;16.25;61.48;93135.97;5071535;28;20024;-38
2022/04/26 15:23:55;;;;;;;2.85;1.60;;;;;;;16.13;62.92;93140.72;5071449;28;20020;-38
2022/04/26 15:26:21;;;;;;;4.68;1.35;;;;;;;16.11;61.88;93154.50;5071808;28;20028;-38
2022/04/26 15:28:47;;;;;;;4.63;1.33;;;;;;;16.01;61.53;93158.63;5071435;28;20086;-38
2022/04/26 15:31:17;;;;;;;1.25;1.00;;;;;;;15.87;62.42;93164.66;5071244;28;20111;-38
2022/04/26 15:33:43;;;;;;;5.25;1.70;;;;;;;15.81;62.64;93167.03;5071254;28;20037;-38
2022/04/26 15:36:09;;;;;;;6.25;1.80;;;;;;;15.66;62.89;93166.63;5071272;28;20028;-38
2022/04/26 15:38:34;;;;;;;3.47;1.88;;;;;;;15.57;62.73;93176.47;5071464;28;20082;-38
2022/04/26 15:41:05;;;;;;;5.30;3.30;;;;;;;15.61;62.53;93167.69;5071233;28;20485;-38
2022/04/26 15:43:32;;;;;;;2.20;1.63;;;;;;;15.51;61.34;93178.06;5071428;28;20025;-38
2022/04/26 15:45:57;;;;;;;1.42;1.20;;;;;;;15.45;60.31;93188.78;5071044;28;20052;-38
2022/04/26 15:48:24;;;;;;;4.93;1.50;;;;;;;15.32;61.10;93205.88;5071228;28;20074;-38
2022/04/26 15:50:50;;;;;;;1.35;1.10;;;;;;;15.01;61.89;93217.56;5070874;28;20024;-37
2022/04/26 15:53:15;;;;;;;1.83;1.08;;;;;;;14.94;62.24;93217.72;5071126;28;20028;-38
2022/04/26 15:55:41;;;;;;;3.08;1.05;;;;;;;14.77;62.51;93218.56;5071224;28;20468;-38
2022/04/26 15:58:08;;;;;;;2.47;1.42;;;;;;;14.81;62.06;93210.50;5071052;28;20050;-38
2022/04/26 16:00:33;;;;;;;3.00;2.10;;;;;;;14.74;61.20;93193.97;5070909;28;20027;-38